sensor_id;sensor_type;location;lat;lon;timestamp;temperature;humidity
18103;DHT22;9178;51.120;6.192;2023-05-13T00:01:52;11.40;99.90
18103;DHT22;9178;51.120;6.192;2023-05-13T00:04:19;11.40;99.90
18103;DHT22;9178;51.120;6.192;2023-05-13T00:06:48;11.40;99.90
18103;DHT22;9178;51.120;6.192;2023-05-13T00:09:15;11.30;99.90
18103;DHT22;9178;51.120;6.192;2023-05-13T00:11:42;11.30;99.90
18103;DHT22;9178;51.120;6.192;2023-05-13T00:14:08;11.30;99.90
18103;DHT22;9178;51.120;6.192;2023-05-13T00:16:36;11.40;99.90
18103;DHT22;9178;51.120;6.192;2023-05-13T00:19:03;11.40;99.90
18103;DHT22;9178;51.120;6.192;2023-05-13T00:21:30;11.40;99.90
18103;DHT22;9178;51.120;6.192;2023-05-13T00:23:59;11.40;99.90
18103;DHT22;9178;51.120;6.192;2023-05-13T00:26:26;11.40;99.90
18103;DHT22;9178;51.120;6.192;2023-05-13T00:28:53;11.40;99.90
18103;DHT22;9178;51.120;6.192;2023-05-13T00:31:23;11.40;99.90
18103;DHT22;9178;51.120;6.192;2023-05-13T00:33:50;11.40;99.90
18103;DHT22;9178;51.120;6.192;2023-05-13T00:36:17;11.40;99.90
18103;DHT22;9178;51.120;6.192;2023-05-13T00:38:44;11.40;99.90
18103;DHT22;9178;51.120;6.192;2023-05-13T00:41:12;11.40;99.90
18103;DHT22;9178;51.120;6.192;2023-05-13T00:43:39;11.40;99.90
18103;DHT22;9178;51.120;6.192;2023-05-13T00:46:08;11.40;99.90
18103;DHT22;9178;51.120;6.192;2023-05-13T00:48:35;11.40;99.90
18103;DHT22;9178;51.120;6.192;2023-05-13T00:51:03;11.40;99.90
18103;DHT22;9178;51.120;6.192;2023-05-13T00:53:33;11.40;99.90
18103;DHT22;9178;51.120;6.192;2023-05-13T00:56:00;11.40;99.90
18103;DHT22;9178;51.120;6.192;2023-05-13T00:58:29;11.40;99.90
18103;DHT22;9178;51.120;6.192;2023-05-13T01:01:12;11.40;99.90
18103;DHT22;9178;51.120;6.192;2023-05-13T01:03:48;11.50;99.90
18103;DHT22;9178;51.120;6.192;2023-05-13T01:06:20;11.50;99.90
18103;DHT22;9178;51.120;6.192;2023-05-13T01:08:55;11.50;99.90
18103;DHT22;9178;51.120;6.192;2023-05-13T01:11:27;11.50;99.90
18103;DHT22;9178;51.120;6.192;2023-05-13T01:14:01;11.50;99.90
18103;DHT22;9178;51.120;6.192;2023-05-13T01:16:33;11.50;99.90
18103;DHT22;9178;51.120;6.192;2023-05-13T01:19:06;11.60;99.90
18103;DHT22;9178;51.120;6.192;2023-05-13T01:21:39;11.60;99.90
18103;DHT22;9178;51.120;6.192;2023-05-13T01:24:06;11.60;99.90
18103;DHT22;9178;51.120;6.192;2023-05-13T01:26:33;11.60;99.90
18103;DHT22;9178;51.120;6.192;2023-05-13T01:29:00;11.60;99.90
18103;DHT22;9178;51.120;6.192;2023-05-13T01:31:33;11.60;99.90
18103;DHT22;9178;51.120;6.192;2023-05-13T01:34:01;11.50;99.90
18103;DHT22;9178;51.120;6.192;2023-05-13T01:36:29;11.50;99.90
18103;DHT22;9178;51.120;6.192;2023-05-13T01:38:59;11.50;99.90
18103;DHT22;9178;51.120;6.192;2023-05-13T01:41:29;11.50;99.90
18103;DHT22;9178;51.120;6.192;2023-05-13T01:43:56;11.50;99.90
18103;DHT22;9178;51.120;6.192;2023-05-13T01:46:23;11.50;99.90
18103;DHT22;9178;51.120;6.192;2023-05-13T01:48:50;11.50;99.90
18103;DHT22;9178;51.120;6.192;2023-05-13T01:51:19;11.50;99.90
18103;DHT22;9178;51.120;6.192;2023-05-13T01:53:46;11.50;99.90
18103;DHT22;9178;51.120;6.192;2023-05-13T01:56:14;11.50;99.90
18103;DHT22;9178;51.120;6.192;2023-05-13T01:58:45;11.50;99.90
18103;DHT22;9178;51.120;6.192;2023-05-13T02:01:12;11.40;99.90
18103;DHT22;9178;51.120;6.192;2023-05-13T02:03:39;11.40;99.90
18103;DHT22;9178;51.120;6.192;2023-05-13T02:06:09;11.40;99.90
18103;DHT22;9178;51.120;6.192;2023-05-13T02:08:36;11.40;99.90
18103;DHT22;9178;51.120;6.192;2023-05-13T02:11:03;11.40;99.90
18103;DHT22;9178;51.120;6.192;2023-05-13T02:13:32;11.40;99.90
18103;DHT22;9178;51.120;6.192;2023-05-13T02:15:59;11.40;99.90
18103;DHT22;9178;51.120;6.192;2023-05-13T02:18:26;11.40;99.90
18103;DHT22;9178;51.120;6.192;2023-05-13T02:20:54;11.40;99.90
18103;DHT22;9178;51.120;6.192;2023-05-13T02:23:22;11.30;99.90
18103;DHT22;9178;51.120;6.192;2023-05-13T02:25:48;11.30;99.90
18103;DHT22;9178;51.120;6.192;2023-05-13T02:28:15;11.20;99.90
18103;DHT22;9178;51.120;6.192;2023-05-13T02:30:44;11.20;99.90
18103;DHT22;9178;51.120;6.192;2023-05-13T02:33:11;11.20;99.90
18103;DHT22;9178;51.120;6.192;2023-05-13T02:35:38;11.20;99.90
18103;DHT22;9178;51.120;6.192;2023-05-13T02:38:05;11.20;99.90
18103;DHT22;9178;51.120;6.192;2023-05-13T02:40:34;11.10;99.90
18103;DHT22;9178;51.120;6.192;2023-05-13T02:43:02;11.10;99.90
18103;DHT22;9178;51.120;6.192;2023-05-13T02:45:29;11.10;99.90
18103;DHT22;9178;51.120;6.192;2023-05-13T02:47:57;11.10;99.90
18103;DHT22;9178;51.120;6.192;2023-05-13T02:50:24;11.10;99.90
18103;DHT22;9178;51.120;6.192;2023-05-13T02:52:51;11.10;99.90
18103;DHT22;9178;51.120;6.192;2023-05-13T02:55:18;11.10;99.90
18103;DHT22;9178;51.120;6.192;2023-05-13T02:57:45;11.00;99.90
18103;DHT22;9178;51.120;6.192;2023-05-13T03:00:13;11.10;99.90
18103;DHT22;9178;51.120;6.192;2023-05-13T03:02:43;11.00;99.90
18103;DHT22;9178;51.120;6.192;2023-05-13T03:05:11;11.10;99.90
18103;DHT22;9178;51.120;6.192;2023-05-13T03:07:41;11.00;99.90
18103;DHT22;9178;51.120;6.192;2023-05-13T03:10:08;11.00;99.90
18103;DHT22;9178;51.120;6.192;2023-05-13T03:12:35;11.00;99.90
18103;DHT22;9178;51.120;6.192;2023-05-13T03:15:06;11.00;99.90
18103;DHT22;9178;51.120;6.192;2023-05-13T03:17:35;11.00;99.90
18103;DHT22;9178;51.120;6.192;2023-05-13T03:20:03;10.90;99.90
18103;DHT22;9178;51.120;6.192;2023-05-13T03:22:32;10.90;99.90
18103;DHT22;9178;51.120;6.192;2023-05-13T03:24:58;10.90;99.90
18103;DHT22;9178;51.120;6.192;2023-05-13T03:27:25;10.90;99.90
18103;DHT22;9178;51.120;6.192;2023-05-13T03:29:52;10.80;99.90
18103;DHT22;9178;51.120;6.192;2023-05-13T03:32:22;10.80;99.90
18103;DHT22;9178;51.120;6.192;2023-05-13T03:34:49;10.80;99.90
18103;DHT22;9178;51.120;6.192;2023-05-13T03:37:17;10.80;99.90
18103;DHT22;9178;51.120;6.192;2023-05-13T03:39:45;10.70;99.90
18103;DHT22;9178;51.120;6.192;2023-05-13T03:42:12;10.80;99.90
18103;DHT22;9178;51.120;6.192;2023-05-13T03:44:39;10.70;99.90
18103;DHT22;9178;51.120;6.192;2023-05-13T03:47:07;10.80;99.90
18103;DHT22;9178;51.120;6.192;2023-05-13T03:49:34;10.70;99.90
18103;DHT22;9178;51.120;6.192;2023-05-13T03:52:01;10.70;99.90
18103;DHT22;9178;51.120;6.192;2023-05-13T03:54:28;10.70;99.90
18103;DHT22;9178;51.120;6.192;2023-05-13T03:56:58;10.70;99.90
18103;DHT22;9178;51.120;6.192;2023-05-13T03:59:25;10.70;99.90
18103;DHT22;9178;51.120;6.192;2023-05-13T04:01:52;10.70;99.90
18103;DHT22;9178;51.120;6.192;2023-05-13T04:04:19;10.70;99.90
18103;DHT22;9178;51.120;6.192;2023-05-13T04:06:45;10.70;99.90
18103;DHT22;9178;51.120;6.192;2023-05-13T04:09:12;10.70;99.90
18103;DHT22;9178;51.120;6.192;2023-05-13T04:11:39;10.70;99.90
18103;DHT22;9178;51.120;6.192;2023-05-13T04:14:07;10.70;99.90
18103;DHT22;9178;51.120;6.192;2023-05-13T04:16:34;10.70;99.90
18103;DHT22;9178;51.120;6.192;2023-05-13T04:19:01;10.60;99.90
18103;DHT22;9178;51.120;6.192;2023-05-13T04:21:28;10.60;99.90
18103;DHT22;9178;51.120;6.192;2023-05-13T04:23:55;10.60;99.90
18103;DHT22;9178;51.120;6.192;2023-05-13T04:26:23;10.60;99.90
18103;DHT22;9178;51.120;6.192;2023-05-13T04:28:50;10.60;99.90
18103;DHT22;9178;51.120;6.192;2023-05-13T04:31:22;10.60;99.90
18103;DHT22;9178;51.120;6.192;2023-05-13T04:33:49;10.60;99.90
18103;DHT22;9178;51.120;6.192;2023-05-13T04:36:16;10.50;99.90
18103;DHT22;9178;51.120;6.192;2023-05-13T04:38:52;10.50;99.90
18103;DHT22;9178;51.120;6.192;2023-05-13T04:41:19;10.50;99.90
18103;DHT22;9178;51.120;6.192;2023-05-13T04:43:49;10.50;99.90
18103;DHT22;9178;51.120;6.192;2023-05-13T04:46:23;10.40;99.90
18103;DHT22;9178;51.120;6.192;2023-05-13T04:48:50;10.40;99.90
18103;DHT22;9178;51.120;6.192;2023-05-13T04:51:17;10.50;99.90
18103;DHT22;9178;51.120;6.192;2023-05-13T04:53:44;10.50;99.90
18103;DHT22;9178;51.120;6.192;2023-05-13T04:56:11;10.50;99.90
18103;DHT22;9178;51.120;6.192;2023-05-13T04:58:38;10.60;99.90
18103;DHT22;9178;51.120;6.192;2023-05-13T05:01:05;10.60;99.90
18103;DHT22;9178;51.120;6.192;2023-05-13T05:03:33;10.70;99.90
18103;DHT22;9178;51.120;6.192;2023-05-13T05:06:02;10.80;99.90
18103;DHT22;9178;51.120;6.192;2023-05-13T05:08:29;10.90;99.90
18103;DHT22;9178;51.120;6.192;2023-05-13T05:10:56;10.90;99.90
18103;DHT22;9178;51.120;6.192;2023-05-13T05:13:23;10.90;99.90
18103;DHT22;9178;51.120;6.192;2023-05-13T05:15:50;11.00;99.90
18103;DHT22;9178;51.120;6.192;2023-05-13T05:18:17;11.10;99.90
18103;DHT22;9178;51.120;6.192;2023-05-13T05:20:45;11.10;99.90
18103;DHT22;9178;51.120;6.192;2023-05-13T05:23:12;11.10;99.90
18103;DHT22;9178;51.120;6.192;2023-05-13T05:25:39;11.20;99.90
18103;DHT22;9178;51.120;6.192;2023-05-13T05:28:09;11.20;99.90
18103;DHT22;9178;51.120;6.192;2023-05-13T05:30:36;11.20;99.90
18103;DHT22;9178;51.120;6.192;2023-05-13T05:33:05;11.20;99.90
18103;DHT22;9178;51.120;6.192;2023-05-13T05:35:32;11.30;99.90
18103;DHT22;9178;51.120;6.192;2023-05-13T05:38:05;11.20;99.90
18103;DHT22;9178;51.120;6.192;2023-05-13T05:40:35;11.30;99.90
18103;DHT22;9178;51.120;6.192;2023-05-13T05:43:04;11.30;99.90
18103;DHT22;9178;51.120;6.192;2023-05-13T05:45:33;11.30;99.90
18103;DHT22;9178;51.120;6.192;2023-05-13T05:48:04;11.30;99.90
18103;DHT22;9178;51.120;6.192;2023-05-13T05:50:34;11.40;99.90
18103;DHT22;9178;51.120;6.192;2023-05-13T05:53:03;11.40;99.90
18103;DHT22;9178;51.120;6.192;2023-05-13T05:55:31;11.50;99.90
18103;DHT22;9178;51.120;6.192;2023-05-13T05:58:01;11.50;99.90
18103;DHT22;9178;51.120;6.192;2023-05-13T06:00:30;11.60;99.90
18103;DHT22;9178;51.120;6.192;2023-05-13T06:02:59;11.70;99.90
18103;DHT22;9178;51.120;6.192;2023-05-13T06:05:26;11.80;99.90
18103;DHT22;9178;51.120;6.192;2023-05-13T06:07:53;11.90;99.90
18103;DHT22;9178;51.120;6.192;2023-05-13T06:10:22;11.90;99.90
18103;DHT22;9178;51.120;6.192;2023-05-13T06:12:51;12.00;99.90
18103;DHT22;9178;51.120;6.192;2023-05-13T06:15:18;12.10;99.90
18103;DHT22;9178;51.120;6.192;2023-05-13T06:17:45;12.20;99.90
18103;DHT22;9178;51.120;6.192;2023-05-13T06:20:12;12.30;99.90
18103;DHT22;9178;51.120;6.192;2023-05-13T06:22:39;12.40;99.90
18103;DHT22;9178;51.120;6.192;2023-05-13T06:25:07;12.50;99.90
18103;DHT22;9178;51.120;6.192;2023-05-13T06:27:35;12.60;99.90
18103;DHT22;9178;51.120;6.192;2023-05-13T06:30:03;12.70;99.90
18103;DHT22;9178;51.120;6.192;2023-05-13T06:32:30;12.80;99.90
18103;DHT22;9178;51.120;6.192;2023-05-13T06:34:57;12.90;99.90
18103;DHT22;9178;51.120;6.192;2023-05-13T06:37:24;12.90;99.90
18103;DHT22;9178;51.120;6.192;2023-05-13T06:39:51;13.00;99.90
18103;DHT22;9178;51.120;6.192;2023-05-13T06:42:17;13.00;99.90
18103;DHT22;9178;51.120;6.192;2023-05-13T06:44:46;13.10;99.90
18103;DHT22;9178;51.120;6.192;2023-05-13T06:47:12;13.20;99.90
18103;DHT22;9178;51.120;6.192;2023-05-13T06:49:40;13.30;99.90
18103;DHT22;9178;51.120;6.192;2023-05-13T06:52:07;13.30;99.90
18103;DHT22;9178;51.120;6.192;2023-05-13T06:54:34;13.40;99.90
18103;DHT22;9178;51.120;6.192;2023-05-13T06:57:01;13.50;99.90
18103;DHT22;9178;51.120;6.192;2023-05-13T06:59:29;13.70;99.90
18103;DHT22;9178;51.120;6.192;2023-05-13T07:01:58;13.80;99.90
18103;DHT22;9178;51.120;6.192;2023-05-13T07:04:24;13.80;99.90
18103;DHT22;9178;51.120;6.192;2023-05-13T07:06:53;13.90;99.90
18103;DHT22;9178;51.120;6.192;2023-05-13T07:09:20;14.00;99.90
18103;DHT22;9178;51.120;6.192;2023-05-13T07:11:47;14.10;99.90
18103;DHT22;9178;51.120;6.192;2023-05-13T07:14:14;14.30;99.90
18103;DHT22;9178;51.120;6.192;2023-05-13T07:16:41;14.50;99.90
18103;DHT22;9178;51.120;6.192;2023-05-13T07:19:10;14.80;99.90
18103;DHT22;9178;51.120;6.192;2023-05-13T07:21:37;15.10;99.90
18103;DHT22;9178;51.120;6.192;2023-05-13T07:24:04;15.30;99.90
18103;DHT22;9178;51.120;6.192;2023-05-13T07:26:31;15.60;99.90
18103;DHT22;9178;51.120;6.192;2023-05-13T07:28:58;15.80;99.90
18103;DHT22;9178;51.120;6.192;2023-05-13T07:31:29;16.00;99.90
18103;DHT22;9178;51.120;6.192;2023-05-13T07:34:02;16.40;99.90
18103;DHT22;9178;51.120;6.192;2023-05-13T07:36:31;16.60;99.90
18103;DHT22;9178;51.120;6.192;2023-05-13T07:38:58;16.90;99.90
18103;DHT22;9178;51.120;6.192;2023-05-13T07:41:26;17.10;99.90
18103;DHT22;9178;51.120;6.192;2023-05-13T07:43:53;17.30;99.90
18103;DHT22;9178;51.120;6.192;2023-05-13T07:46:20;17.60;99.90
18103;DHT22;9178;51.120;6.192;2023-05-13T07:48:47;17.90;99.90
18103;DHT22;9178;51.120;6.192;2023-05-13T07:51:14;18.10;99.90
18103;DHT22;9178;51.120;6.192;2023-05-13T07:53:44;18.20;99.90
18103;DHT22;9178;51.120;6.192;2023-05-13T07:56:11;18.40;99.90
18103;DHT22;9178;51.120;6.192;2023-05-13T07:58:40;18.60;99.90
18103;DHT22;9178;51.120;6.192;2023-05-13T08:01:07;18.80;99.90
18103;DHT22;9178;51.120;6.192;2023-05-13T08:03:35;19.00;99.90
18103;DHT22;9178;51.120;6.192;2023-05-13T08:06:01;19.20;99.90
18103;DHT22;9178;51.120;6.192;2023-05-13T08:08:29;19.40;99.90
18103;DHT22;9178;51.120;6.192;2023-05-13T08:10:58;19.50;99.90
18103;DHT22;9178;51.120;6.192;2023-05-13T08:13:25;19.70;99.90
18103;DHT22;9178;51.120;6.192;2023-05-13T08:15:52;19.80;99.90
18103;DHT22;9178;51.120;6.192;2023-05-13T08:18:21;20.00;99.90
18103;DHT22;9178;51.120;6.192;2023-05-13T08:20:48;20.20;99.90
18103;DHT22;9178;51.120;6.192;2023-05-13T08:23:15;20.40;99.90
18103;DHT22;9178;51.120;6.192;2023-05-13T08:25:45;20.60;99.90
18103;DHT22;9178;51.120;6.192;2023-05-13T08:28:13;20.70;99.90
18103;DHT22;9178;51.120;6.192;2023-05-13T08:30:40;20.80;99.90
18103;DHT22;9178;51.120;6.192;2023-05-13T08:33:08;21.00;99.90
18103;DHT22;9178;51.120;6.192;2023-05-13T08:35:35;21.20;99.90
18103;DHT22;9178;51.120;6.192;2023-05-13T08:38:02;21.50;99.90
18103;DHT22;9178;51.120;6.192;2023-05-13T08:40:30;21.80;99.90
18103;DHT22;9178;51.120;6.192;2023-05-13T08:42:57;22.00;99.90
18103;DHT22;9178;51.120;6.192;2023-05-13T08:45:31;22.20;99.90
18103;DHT22;9178;51.120;6.192;2023-05-13T08:48:00;22.40;99.90
18103;DHT22;9178;51.120;6.192;2023-05-13T08:50:28;22.40;99.90
18103;DHT22;9178;51.120;6.192;2023-05-13T08:52:57;22.60;99.90
18103;DHT22;9178;51.120;6.192;2023-05-13T08:55:26;22.80;99.90
18103;DHT22;9178;51.120;6.192;2023-05-13T08:57:53;23.00;99.90
18103;DHT22;9178;51.120;6.192;2023-05-13T09:00:20;23.00;99.90
18103;DHT22;9178;51.120;6.192;2023-05-13T09:02:50;23.10;99.90
18103;DHT22;9178;51.120;6.192;2023-05-13T09:05:18;23.20;99.90
18103;DHT22;9178;51.120;6.192;2023-05-13T09:07:53;23.30;99.90
18103;DHT22;9178;51.120;6.192;2023-05-13T09:10:20;23.30;99.90
18103;DHT22;9178;51.120;6.192;2023-05-13T09:12:48;23.50;99.90
18103;DHT22;9178;51.120;6.192;2023-05-13T09:15:26;23.60;99.90
18103;DHT22;9178;51.120;6.192;2023-05-13T09:17:57;23.70;99.90
18103;DHT22;9178;51.120;6.192;2023-05-13T09:20:25;23.50;99.90
18103;DHT22;9178;51.120;6.192;2023-05-13T09:22:55;23.30;99.90
18103;DHT22;9178;51.120;6.192;2023-05-13T09:25:23;23.20;99.90
18103;DHT22;9178;51.120;6.192;2023-05-13T09:27:52;23.40;99.90
18103;DHT22;9178;51.120;6.192;2023-05-13T09:30:22;23.50;99.90
18103;DHT22;9178;51.120;6.192;2023-05-13T09:33:08;23.60;99.90
18103;DHT22;9178;51.120;6.192;2023-05-13T09:35:36;23.50;99.90
18103;DHT22;9178;51.120;6.192;2023-05-13T09:38:13;23.80;99.90
18103;DHT22;9178;51.120;6.192;2023-05-13T09:40:41;24.00;99.90
18103;DHT22;9178;51.120;6.192;2023-05-13T09:43:19;24.30;99.90
18103;DHT22;9178;51.120;6.192;2023-05-13T09:45:46;24.50;99.90
18103;DHT22;9178;51.120;6.192;2023-05-13T09:48:17;24.90;99.90
18103;DHT22;9178;51.120;6.192;2023-05-13T09:50:46;25.50;99.90
18103;DHT22;9178;51.120;6.192;2023-05-13T09:53:15;25.60;99.90
18103;DHT22;9178;51.120;6.192;2023-05-13T09:55:44;25.80;99.90
18103;DHT22;9178;51.120;6.192;2023-05-13T09:58:12;25.80;99.90
18103;DHT22;9178;51.120;6.192;2023-05-13T10:00:40;26.30;99.90
18103;DHT22;9178;51.120;6.192;2023-05-13T10:03:07;26.60;99.90
18103;DHT22;9178;51.120;6.192;2023-05-13T10:05:41;26.70;99.90
18103;DHT22;9178;51.120;6.192;2023-05-13T10:08:10;26.90;99.90
18103;DHT22;9178;51.120;6.192;2023-05-13T10:10:40;27.30;99.90
18103;DHT22;9178;51.120;6.192;2023-05-13T10:13:12;27.70;99.80
18103;DHT22;9178;51.120;6.192;2023-05-13T10:15:47;28.00;99.90
18103;DHT22;9178;51.120;6.192;2023-05-13T10:18:15;28.10;98.50
18103;DHT22;9178;51.120;6.192;2023-05-13T10:20:44;28.20;97.00
18103;DHT22;9178;51.120;6.192;2023-05-13T10:23:19;28.40;96.50
18103;DHT22;9178;51.120;6.192;2023-05-13T10:25:47;28.40;95.80
18103;DHT22;9178;51.120;6.192;2023-05-13T10:28:16;28.70;95.60
18103;DHT22;9178;51.120;6.192;2023-05-13T10:30:50;29.20;95.40
18103;DHT22;9178;51.120;6.192;2023-05-13T10:33:17;29.60;95.50
18103;DHT22;9178;51.120;6.192;2023-05-13T10:35:53;29.80;90.80
18103;DHT22;9178;51.120;6.192;2023-05-13T10:38:31;30.10;90.10
18103;DHT22;9178;51.120;6.192;2023-05-13T10:41:12;30.10;87.90
18103;DHT22;9178;51.120;6.192;2023-05-13T10:43:55;30.10;93.40
18103;DHT22;9178;51.120;6.192;2023-05-13T10:46:23;30.10;86.80
18103;DHT22;9178;51.120;6.192;2023-05-13T10:48:58;30.00;88.50
18103;DHT22;9178;51.120;6.192;2023-05-13T10:51:33;29.90;91.10
18103;DHT22;9178;51.120;6.192;2023-05-13T10:54:00;30.20;91.50
18103;DHT22;9178;51.120;6.192;2023-05-13T10:56:28;30.30;87.80
18103;DHT22;9178;51.120;6.192;2023-05-13T10:58:59;30.30;90.50
18103;DHT22;9178;51.120;6.192;2023-05-13T11:01:32;30.60;85.60
18103;DHT22;9178;51.120;6.192;2023-05-13T11:04:04;30.70;83.90
18103;DHT22;9178;51.120;6.192;2023-05-13T11:06:37;30.70;89.00
18103;DHT22;9178;51.120;6.192;2023-05-13T11:09:10;31.00;85.20
18103;DHT22;9178;51.120;6.192;2023-05-13T11:11:38;30.90;78.60
18103;DHT22;9178;51.120;6.192;2023-05-13T11:14:07;30.70;84.80
18103;DHT22;9178;51.120;6.192;2023-05-13T11:16:35;31.10;80.00
18103;DHT22;9178;51.120;6.192;2023-05-13T11:19:11;31.30;82.40
18103;DHT22;9178;51.120;6.192;2023-05-13T11:21:50;31.30;79.50
18103;DHT22;9178;51.120;6.192;2023-05-13T11:24:18;31.50;76.90
18103;DHT22;9178;51.120;6.192;2023-05-13T11:26:47;31.60;76.70
18103;DHT22;9178;51.120;6.192;2023-05-13T11:29:25;31.70;79.90
18103;DHT22;9178;51.120;6.192;2023-05-13T11:31:53;31.50;75.10
18103;DHT22;9178;51.120;6.192;2023-05-13T11:34:22;31.60;76.00
18103;DHT22;9178;51.120;6.192;2023-05-13T11:36:54;31.70;79.70
18103;DHT22;9178;51.120;6.192;2023-05-13T11:39:23;31.90;78.30
18103;DHT22;9178;51.120;6.192;2023-05-13T11:41:52;32.00;73.70
18103;DHT22;9178;51.120;6.192;2023-05-13T11:44:20;32.00;75.80
18103;DHT22;9178;51.120;6.192;2023-05-13T11:46:54;32.30;78.10
18103;DHT22;9178;51.120;6.192;2023-05-13T11:49:41;32.30;71.40
18103;DHT22;9178;51.120;6.192;2023-05-13T11:52:11;32.30;80.10
18103;DHT22;9178;51.120;6.192;2023-05-13T11:54:47;32.70;71.60
18103;DHT22;9178;51.120;6.192;2023-05-13T11:57:17;33.00;76.50
18103;DHT22;9178;51.120;6.192;2023-05-13T11:59:49;33.00;70.90
18103;DHT22;9178;51.120;6.192;2023-05-13T12:02:19;32.90;72.90
18103;DHT22;9178;51.120;6.192;2023-05-13T12:04:54;32.60;71.20
18103;DHT22;9178;51.120;6.192;2023-05-13T12:07:23;32.50;71.90
18103;DHT22;9178;51.120;6.192;2023-05-13T12:09:52;32.10;69.60
18103;DHT22;9178;51.120;6.192;2023-05-13T12:12:22;31.90;67.10
18103;DHT22;9178;51.120;6.192;2023-05-13T12:14:50;32.00;67.20
18103;DHT22;9178;51.120;6.192;2023-05-13T12:17:18;32.00;64.50
18103;DHT22;9178;51.120;6.192;2023-05-13T12:20:05;32.20;63.20
18103;DHT22;9178;51.120;6.192;2023-05-13T12:22:34;32.40;68.60
18103;DHT22;9178;51.120;6.192;2023-05-13T12:28:15;32.30;60.60
18103;DHT22;9178;51.120;6.192;2023-05-13T12:30:49;32.00;57.90
18103;DHT22;9178;51.120;6.192;2023-05-13T12:33:17;31.40;57.40
18103;DHT22;9178;51.120;6.192;2023-05-13T12:35:47;30.50;60.10
18103;DHT22;9178;51.120;6.192;2023-05-13T12:38:17;29.80;60.20
18103;DHT22;9178;51.120;6.192;2023-05-13T12:40:47;29.40;60.60
18103;DHT22;9178;51.120;6.192;2023-05-13T12:43:18;29.70;61.20
18103;DHT22;9178;51.120;6.192;2023-05-13T12:45:46;30.40;60.90
18103;DHT22;9178;51.120;6.192;2023-05-13T12:48:13;30.70;60.20
18103;DHT22;9178;51.120;6.192;2023-05-13T12:50:40;30.30;63.00
18103;DHT22;9178;51.120;6.192;2023-05-13T12:53:08;29.70;61.90
18103;DHT22;9178;51.120;6.192;2023-05-13T12:55:36;29.20;64.50
18103;DHT22;9178;51.120;6.192;2023-05-13T12:58:05;28.60;63.70
18103;DHT22;9178;51.120;6.192;2023-05-13T13:00:35;28.10;64.50
18103;DHT22;9178;51.120;6.192;2023-05-13T13:03:12;27.90;65.20
18103;DHT22;9178;51.120;6.192;2023-05-13T13:05:39;28.00;60.50
18103;DHT22;9178;51.120;6.192;2023-05-13T13:08:06;27.80;64.20
18103;DHT22;9178;51.120;6.192;2023-05-13T13:10:33;27.60;63.40
18103;DHT22;9178;51.120;6.192;2023-05-13T13:13:03;27.40;65.30
18103;DHT22;9178;51.120;6.192;2023-05-13T13:15:33;27.10;64.40
18103;DHT22;9178;51.120;6.192;2023-05-13T13:18:02;26.60;69.90
18103;DHT22;9178;51.120;6.192;2023-05-13T13:20:29;26.10;70.30
18103;DHT22;9178;51.120;6.192;2023-05-13T13:22:59;25.80;70.90
18103;DHT22;9178;51.120;6.192;2023-05-13T13:25:26;25.60;68.30
18103;DHT22;9178;51.120;6.192;2023-05-13T13:27:54;25.30;73.10
18103;DHT22;9178;51.120;6.192;2023-05-13T13:30:22;25.30;71.70
18103;DHT22;9178;51.120;6.192;2023-05-13T13:32:50;25.60;73.80
18103;DHT22;9178;51.120;6.192;2023-05-13T13:35:17;26.00;73.60
18103;DHT22;9178;51.120;6.192;2023-05-13T13:37:44;26.00;69.80
18103;DHT22;9178;51.120;6.192;2023-05-13T13:40:12;25.40;74.40
18103;DHT22;9178;51.120;6.192;2023-05-13T13:42:39;24.90;74.30
18103;DHT22;9178;51.120;6.192;2023-05-13T13:45:07;24.30;76.20
18103;DHT22;9178;51.120;6.192;2023-05-13T13:47:35;23.90;78.50
18103;DHT22;9178;51.120;6.192;2023-05-13T13:50:03;23.40;81.00
18103;DHT22;9178;51.120;6.192;2023-05-13T13:52:30;23.10;84.40
18103;DHT22;9178;51.120;6.192;2023-05-13T13:54:56;22.90;85.60
18103;DHT22;9178;51.120;6.192;2023-05-13T13:57:24;23.00;85.70
18103;DHT22;9178;51.120;6.192;2023-05-13T13:59:50;23.00;84.30
18103;DHT22;9178;51.120;6.192;2023-05-13T14:02:17;22.90;84.00
18103;DHT22;9178;51.120;6.192;2023-05-13T14:04:46;22.80;85.90
18103;DHT22;9178;51.120;6.192;2023-05-13T14:07:13;22.60;83.80
18103;DHT22;9178;51.120;6.192;2023-05-13T14:09:40;22.40;83.80
18103;DHT22;9178;51.120;6.192;2023-05-13T14:12:07;22.00;90.60
18103;DHT22;9178;51.120;6.192;2023-05-13T14:14:34;21.60;94.60
18103;DHT22;9178;51.120;6.192;2023-05-13T14:17:01;20.60;99.30
18103;DHT22;9178;51.120;6.192;2023-05-13T14:19:38;19.90;99.90
18103;DHT22;9178;51.120;6.192;2023-05-13T14:22:15;19.70;99.90
18103;DHT22;9178;51.120;6.192;2023-05-13T14:24:42;19.50;99.90
18103;DHT22;9178;51.120;6.192;2023-05-13T14:27:10;19.40;99.90
18103;DHT22;9178;51.120;6.192;2023-05-13T14:29:37;19.20;99.90
18103;DHT22;9178;51.120;6.192;2023-05-13T14:32:04;19.10;99.90
18103;DHT22;9178;51.120;6.192;2023-05-13T14:34:32;19.40;99.90
18103;DHT22;9178;51.120;6.192;2023-05-13T14:36:59;19.50;99.90
18103;DHT22;9178;51.120;6.192;2023-05-13T14:39:28;19.60;99.90
18103;DHT22;9178;51.120;6.192;2023-05-13T14:41:55;19.60;99.90
18103;DHT22;9178;51.120;6.192;2023-05-13T14:44:22;19.80;99.90
18103;DHT22;9178;51.120;6.192;2023-05-13T14:46:49;20.00;99.90
18103;DHT22;9178;51.120;6.192;2023-05-13T14:49:17;19.90;99.90
18103;DHT22;9178;51.120;6.192;2023-05-13T14:51:44;19.50;99.90
18103;DHT22;9178;51.120;6.192;2023-05-13T14:54:14;19.30;99.90
18103;DHT22;9178;51.120;6.192;2023-05-13T14:56:43;19.20;99.90
18103;DHT22;9178;51.120;6.192;2023-05-13T14:59:10;19.00;99.90
18103;DHT22;9178;51.120;6.192;2023-05-13T15:01:40;19.00;99.90
18103;DHT22;9178;51.120;6.192;2023-05-13T15:04:07;19.10;99.90
18103;DHT22;9178;51.120;6.192;2023-05-13T15:06:36;19.40;99.90
18103;DHT22;9178;51.120;6.192;2023-05-13T15:09:03;20.00;99.90
18103;DHT22;9178;51.120;6.192;2023-05-13T15:11:30;20.60;99.90
18103;DHT22;9178;51.120;6.192;2023-05-13T15:14:00;21.10;99.90
18103;DHT22;9178;51.120;6.192;2023-05-13T15:16:27;21.80;99.90
18103;DHT22;9178;51.120;6.192;2023-05-13T15:18:54;22.30;99.90
18103;DHT22;9178;51.120;6.192;2023-05-13T15:21:21;22.40;99.90
18103;DHT22;9178;51.120;6.192;2023-05-13T15:23:53;22.30;99.90
18103;DHT22;9178;51.120;6.192;2023-05-13T15:26:20;22.20;99.90
18103;DHT22;9178;51.120;6.192;2023-05-13T15:28:48;22.10;99.90
18103;DHT22;9178;51.120;6.192;2023-05-13T15:31:16;22.10;99.90
18103;DHT22;9178;51.120;6.192;2023-05-13T15:33:43;22.00;99.90
18103;DHT22;9178;51.120;6.192;2023-05-13T15:36:10;21.90;99.90
18103;DHT22;9178;51.120;6.192;2023-05-13T15:38:37;21.70;99.90
18103;DHT22;9178;51.120;6.192;2023-05-13T15:41:04;21.50;99.90
18103;DHT22;9178;51.120;6.192;2023-05-13T15:43:32;21.00;99.90
18103;DHT22;9178;51.120;6.192;2023-05-13T15:46:02;20.50;99.90
18103;DHT22;9178;51.120;6.192;2023-05-13T15:48:30;19.40;99.90
18103;DHT22;9178;51.120;6.192;2023-05-13T15:50:57;18.70;99.90
18103;DHT22;9178;51.120;6.192;2023-05-13T15:53:24;18.30;99.90
18103;DHT22;9178;51.120;6.192;2023-05-13T15:55:51;18.10;99.90
18103;DHT22;9178;51.120;6.192;2023-05-13T15:58:18;18.10;99.90